sensor_id;sensor_type;location;lat;lon;timestamp;temperature;humidity
66873;HTU21D;53781;51.090;5.884;2022-07-22T00:00:06;19.76;74.93
66873;HTU21D;53781;51.090;5.884;2022-07-22T00:00:22;19.77;74.90
66873;HTU21D;53781;51.090;5.884;2022-07-22T00:00:37;19.80;74.85
66873;HTU21D;53781;51.090;5.884;2022-07-22T00:00:52;19.79;74.86
66873;HTU21D;53781;51.090;5.884;2022-07-22T00:01:06;19.77;74.88
66873;HTU21D;53781;51.090;5.884;2022-07-22T00:01:21;19.76;74.86
66873;HTU21D;53781;51.090;5.884;2022-07-22T00:01:36;19.77;74.85
66873;HTU21D;53781;51.090;5.884;2022-07-22T00:01:50;19.77;74.91
66873;HTU21D;53781;51.090;5.884;2022-07-22T00:02:05;19.75;74.84
66873;HTU21D;53781;51.090;5.884;2022-07-22T00:02:20;19.76;74.88
66873;HTU21D;53781;51.090;5.884;2022-07-22T00:02:35;19.76;74.89
66873;HTU21D;53781;51.090;5.884;2022-07-22T00:02:52;19.79;74.90
66873;HTU21D;53781;51.090;5.884;2022-07-22T00:03:07;19.75;74.94
66873;HTU21D;53781;51.090;5.884;2022-07-22T00:03:22;19.77;74.96
66873;HTU21D;53781;51.090;5.884;2022-07-22T00:03:37;19.76;75.08
66873;HTU21D;53781;51.090;5.884;2022-07-22T00:03:51;19.76;75.05
66873;HTU21D;53781;51.090;5.884;2022-07-22T00:04:06;19.77;75.05
66873;HTU21D;53781;51.090;5.884;2022-07-22T00:04:21;19.75;75.07
66873;HTU21D;53781;51.090;5.884;2022-07-22T00:04:35;19.77;75.03
66873;HTU21D;53781;51.090;5.884;2022-07-22T00:04:50;19.76;74.99
66873;HTU21D;53781;51.090;5.884;2022-07-22T00:05:06;19.76;74.90
66873;HTU21D;53781;51.090;5.884;2022-07-22T00:05:21;19.76;74.86
66873;HTU21D;53781;51.090;5.884;2022-07-22T00:05:35;19.75;74.84
66873;HTU21D;53781;51.090;5.884;2022-07-22T00:05:50;19.74;74.83
66873;HTU21D;53781;51.090;5.884;2022-07-22T00:06:05;19.74;74.76
66873;HTU21D;53781;51.090;5.884;2022-07-22T00:06:20;19.73;74.82
66873;HTU21D;53781;51.090;5.884;2022-07-22T00:06:35;19.71;74.84
66873;HTU21D;53781;51.090;5.884;2022-07-22T00:06:50;19.72;74.86
66873;HTU21D;53781;51.090;5.884;2022-07-22T00:07:05;19.71;74.83
66873;HTU21D;53781;51.090;5.884;2022-07-22T00:07:19;19.69;74.83
66873;HTU21D;53781;51.090;5.884;2022-07-22T00:07:34;19.70;74.78
66873;HTU21D;53781;51.090;5.884;2022-07-22T00:07:49;19.69;74.75
66873;HTU21D;53781;51.090;5.884;2022-07-22T00:08:04;19.68;74.74
66873;HTU21D;53781;51.090;5.884;2022-07-22T00:08:18;19.69;74.75
66873;HTU21D;53781;51.090;5.884;2022-07-22T00:08:33;19.67;74.79
66873;HTU21D;53781;51.090;5.884;2022-07-22T00:08:48;19.66;74.80
66873;HTU21D;53781;51.090;5.884;2022-07-22T00:09:03;19.65;74.84
66873;HTU21D;53781;51.090;5.884;2022-07-22T00:09:18;19.65;74.83
66873;HTU21D;53781;51.090;5.884;2022-07-22T00:09:33;19.62;74.80
66873;HTU21D;53781;51.090;5.884;2022-07-22T00:09:48;19.62;74.86
66873;HTU21D;53781;51.090;5.884;2022-07-22T00:10:05;19.61;74.85
66873;HTU21D;53781;51.090;5.884;2022-07-22T00:10:20;19.61;74.92
66873;HTU21D;53781;51.090;5.884;2022-07-22T00:10:34;19.61;74.97
66873;HTU21D;53781;51.090;5.884;2022-07-22T00:10:49;19.59;74.94
66873;HTU21D;53781;51.090;5.884;2022-07-22T00:11:05;19.59;75.02
66873;HTU21D;53781;51.090;5.884;2022-07-22T00:11:19;19.58;75.04
66873;HTU21D;53781;51.090;5.884;2022-07-22T00:11:35;19.59;75.08
66873;HTU21D;53781;51.090;5.884;2022-07-22T00:11:50;19.60;75.05
66873;HTU21D;53781;51.090;5.884;2022-07-22T00:12:04;19.58;75.06
66873;HTU21D;53781;51.090;5.884;2022-07-22T00:12:19;19.60;75.05
66873;HTU21D;53781;51.090;5.884;2022-07-22T00:12:34;19.60;75.03
66873;HTU21D;53781;51.090;5.884;2022-07-22T00:12:49;19.61;75.03
66873;HTU21D;53781;51.090;5.884;2022-07-22T00:13:04;19.61;75.02
66873;HTU21D;53781;51.090;5.884;2022-07-22T00:13:19;19.59;75.02
66873;HTU21D;53781;51.090;5.884;2022-07-22T00:13:34;19.60;75.01
66873;HTU21D;53781;51.090;5.884;2022-07-22T00:13:49;19.59;75.01
66873;HTU21D;53781;51.090;5.884;2022-07-22T00:14:04;19.60;75.07
66873;HTU21D;53781;51.090;5.884;2022-07-22T00:14:18;19.60;75.08
66873;HTU21D;53781;51.090;5.884;2022-07-22T00:14:33;19.61;75.17
66873;HTU21D;53781;51.090;5.884;2022-07-22T00:14:48;19.62;75.13
66873;HTU21D;53781;51.090;5.884;2022-07-22T00:15:04;19.63;75.18
66873;HTU21D;53781;51.090;5.884;2022-07-22T00:15:20;19.61;75.13
66873;HTU21D;53781;51.090;5.884;2022-07-22T00:15:35;19.62;75.18
66873;HTU21D;53781;51.090;5.884;2022-07-22T00:15:49;19.63;75.18
66873;HTU21D;53781;51.090;5.884;2022-07-22T00:16:05;19.65;75.11
66873;HTU21D;53781;51.090;5.884;2022-07-22T00:16:19;19.62;75.09
66873;HTU21D;53781;51.090;5.884;2022-07-22T00:16:34;19.65;75.08
66873;HTU21D;53781;51.090;5.884;2022-07-22T00:16:49;19.62;75.10
66873;HTU21D;53781;51.090;5.884;2022-07-22T00:17:04;19.62;75.09
66873;HTU21D;53781;51.090;5.884;2022-07-22T00:17:18;19.62;75.11
66873;HTU21D;53781;51.090;5.884;2022-07-22T00:17:33;19.62;75.15
66873;HTU21D;53781;51.090;5.884;2022-07-22T00:17:48;19.63;75.17
66873;HTU21D;53781;51.090;5.884;2022-07-22T00:18:03;19.62;75.12
66873;HTU21D;53781;51.090;5.884;2022-07-22T00:18:17;19.63;75.15
66873;HTU21D;53781;51.090;5.884;2022-07-22T00:18:32;19.63;75.17
66873;HTU21D;53781;51.090;5.884;2022-07-22T00:18:47;19.63;75.14
66873;HTU21D;53781;51.090;5.884;2022-07-22T00:19:02;19.65;75.22
66873;HTU21D;53781;51.090;5.884;2022-07-22T00:19:16;19.65;75.20
66873;HTU21D;53781;51.090;5.884;2022-07-22T00:19:31;19.62;75.15
66873;HTU21D;53781;51.090;5.884;2022-07-22T00:19:46;19.63;75.13
66873;HTU21D;53781;51.090;5.884;2022-07-22T00:20:01;19.65;75.09
66873;HTU21D;53781;51.090;5.884;2022-07-22T00:20:16;19.65;75.10
66873;HTU21D;53781;51.090;5.884;2022-07-22T00:20:30;19.65;75.02
66873;HTU21D;53781;51.090;5.884;2022-07-22T00:20:45;19.65;74.98
66873;HTU21D;53781;51.090;5.884;2022-07-22T00:21:00;19.65;75.02
66873;HTU21D;53781;51.090;5.884;2022-07-22T00:21:15;19.63;75.05
66873;HTU21D;53781;51.090;5.884;2022-07-22T00:21:30;19.63;75.01
66873;HTU21D;53781;51.090;5.884;2022-07-22T00:21:44;19.63;75.03
66873;HTU21D;53781;51.090;5.884;2022-07-22T00:21:59;19.65;74.99
66873;HTU21D;53781;51.090;5.884;2022-07-22T00:22:14;19.62;74.97
66873;HTU21D;53781;51.090;5.884;2022-07-22T00:22:28;19.62;74.95
66873;HTU21D;53781;51.090;5.884;2022-07-22T00:22:43;19.63;74.94
66873;HTU21D;53781;51.090;5.884;2022-07-22T00:22:58;19.63;74.96
66873;HTU21D;53781;51.090;5.884;2022-07-22T00:23:12;19.62;74.96
66873;HTU21D;53781;51.090;5.884;2022-07-22T00:23:27;19.61;75.02
66873;HTU21D;53781;51.090;5.884;2022-07-22T00:23:42;19.63;75.05
66873;HTU21D;53781;51.090;5.884;2022-07-22T00:23:57;19.62;75.06
66873;HTU21D;53781;51.090;5.884;2022-07-22T00:24:11;19.61;75.05
66873;HTU21D;53781;51.090;5.884;2022-07-22T00:24:26;19.61;75.09
66873;HTU21D;53781;51.090;5.884;2022-07-22T00:24:41;19.61;75.08
66873;HTU21D;53781;51.090;5.884;2022-07-22T00:24:56;19.60;75.08
66873;HTU21D;53781;51.090;5.884;2022-07-22T00:25:10;19.61;75.01
66873;HTU21D;53781;51.090;5.884;2022-07-22T00:25:25;19.60;75.02
66873;HTU21D;53781;51.090;5.884;2022-07-22T00:25:42;19.61;74.96
66873;HTU21D;53781;51.090;5.884;2022-07-22T00:25:56;19.62;74.96
66873;HTU21D;53781;51.090;5.884;2022-07-22T00:26:12;19.63;74.92
66873;HTU21D;53781;51.090;5.884;2022-07-22T00:26:27;19.62;74.95
66873;HTU21D;53781;51.090;5.884;2022-07-22T00:26:41;19.61;74.77
66873;HTU21D;53781;51.090;5.884;2022-07-22T00:26:56;19.61;74.82
66873;HTU21D;53781;51.090;5.884;2022-07-22T00:27:13;19.61;74.78
66873;HTU21D;53781;51.090;5.884;2022-07-22T00:27:28;19.62;74.80
66873;HTU21D;53781;51.090;5.884;2022-07-22T00:27:42;19.61;74.83
66873;HTU21D;53781;51.090;5.884;2022-07-22T00:27:57;19.59;74.86
66873;HTU21D;53781;51.090;5.884;2022-07-22T00:28:12;19.60;74.88
66873;HTU21D;53781;51.090;5.884;2022-07-22T00:28:27;19.60;74.83
66873;HTU21D;53781;51.090;5.884;2022-07-22T00:28:42;19.60;74.88
66873;HTU21D;53781;51.090;5.884;2022-07-22T00:28:57;19.60;74.86
66873;HTU21D;53781;51.090;5.884;2022-07-22T00:29:12;19.60;74.81
66873;HTU21D;53781;51.090;5.884;2022-07-22T00:29:27;19.60;74.77
66873;HTU21D;53781;51.090;5.884;2022-07-22T00:29:42;19.61;74.73
66873;HTU21D;53781;51.090;5.884;2022-07-22T00:29:56;19.57;74.75
66873;HTU21D;53781;51.090;5.884;2022-07-22T00:30:11;19.59;74.80
66873;HTU21D;53781;51.090;5.884;2022-07-22T00:30:26;19.58;74.73
66873;HTU21D;53781;51.090;5.884;2022-07-22T00:30:42;19.57;74.77
66873;HTU21D;53781;51.090;5.884;2022-07-22T00:30:57;19.56;74.80
66873;HTU21D;53781;51.090;5.884;2022-07-22T00:31:13;19.57;74.76
66873;HTU21D;53781;51.090;5.884;2022-07-22T00:31:28;19.56;74.83
66873;HTU21D;53781;51.090;5.884;2022-07-22T00:31:45;19.56;74.80
66873;HTU21D;53781;51.090;5.884;2022-07-22T00:32:00;19.57;74.85
66873;HTU21D;53781;51.090;5.884;2022-07-22T00:32:14;19.57;74.87
66873;HTU21D;53781;51.090;5.884;2022-07-22T00:32:29;19.57;74.77
66873;HTU21D;53781;51.090;5.884;2022-07-22T00:32:44;19.57;74.80
66873;HTU21D;53781;51.090;5.884;2022-07-22T00:32:59;19.57;74.86
66873;HTU21D;53781;51.090;5.884;2022-07-22T00:33:14;19.57;74.89
66873;HTU21D;53781;51.090;5.884;2022-07-22T00:33:29;19.56;74.83
66873;HTU21D;53781;51.090;5.884;2022-07-22T00:33:44;19.60;74.65
66873;HTU21D;53781;51.090;5.884;2022-07-22T00:33:59;19.59;74.58
66873;HTU21D;53781;51.090;5.884;2022-07-22T00:34:15;19.56;74.57
66873;HTU21D;53781;51.090;5.884;2022-07-22T00:34:30;19.55;74.58
66873;HTU21D;53781;51.090;5.884;2022-07-22T00:34:45;19.57;74.56
66873;HTU21D;53781;51.090;5.884;2022-07-22T00:34:59;19.55;74.57
66873;HTU21D;53781;51.090;5.884;2022-07-22T00:35:14;19.53;74.54
66873;HTU21D;53781;51.090;5.884;2022-07-22T00:35:29;19.52;74.55
66873;HTU21D;53781;51.090;5.884;2022-07-22T00:35:44;19.51;74.52
66873;HTU21D;53781;51.090;5.884;2022-07-22T00:35:58;19.51;74.51
66873;HTU21D;53781;51.090;5.884;2022-07-22T00:36:13;19.51;74.53
66873;HTU21D;53781;51.090;5.884;2022-07-22T00:36:29;19.48;74.61
66873;HTU21D;53781;51.090;5.884;2022-07-22T00:36:43;19.47;74.68
66873;HTU21D;53781;51.090;5.884;2022-07-22T00:36:58;19.48;74.73
66873;HTU21D;53781;51.090;5.884;2022-07-22T00:37:13;19.45;74.77
66873;HTU21D;53781;51.090;5.884;2022-07-22T00:37:28;19.46;74.82
66873;HTU21D;53781;51.090;5.884;2022-07-22T00:37:42;19.46;74.93
66873;HTU21D;53781;51.090;5.884;2022-07-22T00:37:57;19.45;74.98
66873;HTU21D;53781;51.090;5.884;2022-07-22T00:38:12;19.44;74.98
66873;HTU21D;53781;51.090;5.884;2022-07-22T00:38:27;19.45;75.09
66873;HTU21D;53781;51.090;5.884;2022-07-22T00:38:42;19.46;75.10
66873;HTU21D;53781;51.090;5.884;2022-07-22T00:38:57;19.46;75.07
66873;HTU21D;53781;51.090;5.884;2022-07-22T00:39:12;19.44;75.09
66873;HTU21D;53781;51.090;5.884;2022-07-22T00:39:26;19.46;75.14
66873;HTU21D;53781;51.090;5.884;2022-07-22T00:39:41;19.45;75.15
66873;HTU21D;53781;51.090;5.884;2022-07-22T00:39:56;19.46;75.15
66873;HTU21D;53781;51.090;5.884;2022-07-22T00:40:11;19.47;75.20
66873;HTU21D;53781;51.090;5.884;2022-07-22T00:40:27;19.47;75.14
66873;HTU21D;53781;51.090;5.884;2022-07-22T00:40:41;19.47;75.09
66873;HTU21D;53781;51.090;5.884;2022-07-22T00:40:57;19.47;75.08
66873;HTU21D;53781;51.090;5.884;2022-07-22T00:41:12;19.46;75.09
66873;HTU21D;53781;51.090;5.884;2022-07-22T00:41:27;19.46;75.06
66873;HTU21D;53781;51.090;5.884;2022-07-22T00:41:42;19.47;75.06
66873;HTU21D;53781;51.090;5.884;2022-07-22T00:41:56;19.46;74.95
66873;HTU21D;53781;51.090;5.884;2022-07-22T00:42:12;19.48;75.00
66873;HTU21D;53781;51.090;5.884;2022-07-22T00:42:27;19.48;74.98
66873;HTU21D;53781;51.090;5.884;2022-07-22T00:42:42;19.47;74.93
66873;HTU21D;53781;51.090;5.884;2022-07-22T00:42:57;19.48;74.96
66873;HTU21D;53781;51.090;5.884;2022-07-22T00:43:11;19.47;74.99
66873;HTU21D;53781;51.090;5.884;2022-07-22T00:43:26;19.47;75.02
66873;HTU21D;53781;51.090;5.884;2022-07-22T00:44:02;19.47;75.13
66873;HTU21D;53781;51.090;5.884;2022-07-22T00:44:17;19.51;75.19
66873;HTU21D;53781;51.090;5.884;2022-07-22T00:44:32;19.48;75.21
66873;HTU21D;53781;51.090;5.884;2022-07-22T00:44:47;19.48;75.35
66873;HTU21D;53781;51.090;5.884;2022-07-22T00:45:02;19.50;75.30
66873;HTU21D;53781;51.090;5.884;2022-07-22T00:45:17;19.51;75.31
66873;HTU21D;53781;51.090;5.884;2022-07-22T00:45:32;19.48;75.30
66873;HTU21D;53781;51.090;5.884;2022-07-22T00:45:46;19.51;75.27
66873;HTU21D;53781;51.090;5.884;2022-07-22T00:46:01;19.51;75.28
66873;HTU21D;53781;51.090;5.884;2022-07-22T00:46:16;19.50;75.26
66873;HTU21D;53781;51.090;5.884;2022-07-22T00:46:33;19.52;75.22
66873;HTU21D;53781;51.090;5.884;2022-07-22T00:46:48;19.52;75.23
66873;HTU21D;53781;51.090;5.884;2022-07-22T00:47:03;19.50;75.24
66873;HTU21D;53781;51.090;5.884;2022-07-22T00:47:17;19.50;75.25
66873;HTU21D;53781;51.090;5.884;2022-07-22T00:47:33;19.51;75.22
66873;HTU21D;53781;51.090;5.884;2022-07-22T00:47:47;19.53;75.19
66873;HTU21D;53781;51.090;5.884;2022-07-22T00:48:03;19.53;75.25
66873;HTU21D;53781;51.090;5.884;2022-07-22T00:48:18;19.52;75.19
66873;HTU21D;53781;51.090;5.884;2022-07-22T00:48:32;19.53;75.11
66873;HTU21D;53781;51.090;5.884;2022-07-22T00:48:47;19.53;75.10
66873;HTU21D;53781;51.090;5.884;2022-07-22T00:49:04;19.53;75.10
66873;HTU21D;53781;51.090;5.884;2022-07-22T00:49:19;19.52;75.07
66873;HTU21D;53781;51.090;5.884;2022-07-22T00:49:34;19.54;74.98
66873;HTU21D;53781;51.090;5.884;2022-07-22T00:49:49;19.54;75.00
66873;HTU21D;53781;51.090;5.884;2022-07-22T00:50:04;19.54;74.96
66873;HTU21D;53781;51.090;5.884;2022-07-22T00:50:19;19.53;74.95
66873;HTU21D;53781;51.090;5.884;2022-07-22T00:50:36;19.54;74.84
66873;HTU21D;53781;51.090;5.884;2022-07-22T00:50:51;19.53;74.79
66873;HTU21D;53781;51.090;5.884;2022-07-22T00:51:06;19.53;74.78
66873;HTU21D;53781;51.090;5.884;2022-07-22T00:51:22;19.54;74.71
66873;HTU21D;53781;51.090;5.884;2022-07-22T00:51:37;19.53;74.76
66873;HTU21D;53781;51.090;5.884;2022-07-22T00:51:55;19.50;74.76
66873;HTU21D;53781;51.090;5.884;2022-07-22T00:52:10;19.52;74.76
66873;HTU21D;53781;51.090;5.884;2022-07-22T00:52:26;19.52;74.68
66873;HTU21D;53781;51.090;5.884;2022-07-22T00:52:41;19.53;74.74
66873;HTU21D;53781;51.090;5.884;2022-07-22T00:52:56;19.51;74.76
66873;HTU21D;53781;51.090;5.884;2022-07-22T00:53:11;19.52;74.78
66873;HTU21D;53781;51.090;5.884;2022-07-22T00:53:26;19.51;74.80
66873;HTU21D;53781;51.090;5.884;2022-07-22T00:53:41;19.53;74.75
66873;HTU21D;53781;51.090;5.884;2022-07-22T00:53:56;19.52;74.80
66873;HTU21D;53781;51.090;5.884;2022-07-22T00:54:14;19.51;74.71
66873;HTU21D;53781;51.090;5.884;2022-07-22T00:54:29;19.52;74.67
66873;HTU21D;53781;51.090;5.884;2022-07-22T00:54:44;19.52;74.70
66873;HTU21D;53781;51.090;5.884;2022-07-22T00:55:00;19.51;74.64
66873;HTU21D;53781;51.090;5.884;2022-07-22T00:55:15;19.52;74.62
66873;HTU21D;53781;51.090;5.884;2022-07-22T00:55:33;19.52;74.69
66873;HTU21D;53781;51.090;5.884;2022-07-22T00:55:49;19.50;74.64
66873;HTU21D;53781;51.090;5.884;2022-07-22T00:56:04;19.50;74.56
66873;HTU21D;53781;51.090;5.884;2022-07-22T00:56:19;19.48;74.58
66873;HTU21D;53781;51.090;5.884;2022-07-22T00:56:34;19.48;74.60
66873;HTU21D;53781;51.090;5.884;2022-07-22T00:56:51;19.48;74.58
66873;HTU21D;53781;51.090;5.884;2022-07-22T00:57:05;19.48;74.57
66873;HTU21D;53781;51.090;5.884;2022-07-22T00:57:20;19.47;74.63
66873;HTU21D;53781;51.090;5.884;2022-07-22T00:57:35;19.46;74.67
66873;HTU21D;53781;51.090;5.884;2022-07-22T00:57:50;19.47;74.67
66873;HTU21D;53781;51.090;5.884;2022-07-22T00:58:05;19.47;74.65
66873;HTU21D;53781;51.090;5.884;2022-07-22T00:58:19;19.47;74.73
66873;HTU21D;53781;51.090;5.884;2022-07-22T00:58:36;19.47;74.71
66873;HTU21D;53781;51.090;5.884;2022-07-22T00:58:54;19.46;74.72
66873;HTU21D;53781;51.090;5.884;2022-07-22T00:59:11;19.46;74.72
66873;HTU21D;53781;51.090;5.884;2022-07-22T00:59:26;19.47;74.69
66873;HTU21D;53781;51.090;5.884;2022-07-22T00:59:41;19.46;74.72
66873;HTU21D;53781;51.090;5.884;2022-07-22T00:59:57;19.45;74.68
66873;HTU21D;53781;51.090;5.884;2022-07-22T01:00:16;19.45;74.70
66873;HTU21D;53781;51.090;5.884;2022-07-22T01:00:31;19.46;74.68
66873;HTU21D;53781;51.090;5.884;2022-07-22T01:00:46;19.46;74.64
66873;HTU21D;53781;51.090;5.884;2022-07-22T01:01:01;19.46;74.68
66873;HTU21D;53781;51.090;5.884;2022-07-22T01:01:16;19.45;74.63
66873;HTU21D;53781;51.090;5.884;2022-07-22T01:01:31;19.44;74.68
66873;HTU21D;53781;51.090;5.884;2022-07-22T01:01:46;19.46;74.70
66873;HTU21D;53781;51.090;5.884;2022-07-22T01:02:02;19.46;74.76
66873;HTU21D;53781;51.090;5.884;2022-07-22T01:02:17;19.44;74.77
66873;HTU21D;53781;51.090;5.884;2022-07-22T01:02:32;19.47;74.88
66873;HTU21D;53781;51.090;5.884;2022-07-22T01:02:46;19.46;74.89
66873;HTU21D;53781;51.090;5.884;2022-07-22T01:03:01;19.45;74.94
66873;HTU21D;53781;51.090;5.884;2022-07-22T01:03:16;19.46;74.89
66873;HTU21D;53781;51.090;5.884;2022-07-22T01:03:31;19.46;74.92
66873;HTU21D;53781;51.090;5.884;2022-07-22T01:03:47;19.46;74.90
66873;HTU21D;53781;51.090;5.884;2022-07-22T01:04:02;19.46;74.85
66873;HTU21D;53781;51.090;5.884;2022-07-22T01:04:17;19.47;74.86
66873;HTU21D;53781;51.090;5.884;2022-07-22T01:04:33;19.50;74.86
66873;HTU21D;53781;51.090;5.884;2022-07-22T01:04:48;19.50;74.88
66873;HTU21D;53781;51.090;5.884;2022-07-22T01:05:04;19.48;74.95
66873;HTU21D;53781;51.090;5.884;2022-07-22T01:05:19;19.50;74.94
66873;HTU21D;53781;51.090;5.884;2022-07-22T01:05:34;19.48;75.00
66873;HTU21D;53781;51.090;5.884;2022-07-22T01:05:49;19.50;75.02
66873;HTU21D;53781;51.090;5.884;2022-07-22T01:06:04;19.52;74.98
66873;HTU21D;53781;51.090;5.884;2022-07-22T01:06:19;19.50;74.94
66873;HTU21D;53781;51.090;5.884;2022-07-22T01:06:34;19.52;74.89
66873;HTU21D;53781;51.090;5.884;2022-07-22T01:06:49;19.50;74.84
66873;HTU21D;53781;51.090;5.884;2022-07-22T01:07:03;19.50;74.81
66873;HTU21D;53781;51.090;5.884;2022-07-22T01:07:18;19.51;74.77
66873;HTU21D;53781;51.090;5.884;2022-07-22T01:07:34;19.53;74.74
66873;HTU21D;53781;51.090;5.884;2022-07-22T01:07:49;19.50;74.76
66873;HTU21D;53781;51.090;5.884;2022-07-22T01:08:05;19.51;74.70
66873;HTU21D;53781;51.090;5.884;2022-07-22T01:08:20;19.52;74.69
66873;HTU21D;53781;51.090;5.884;2022-07-22T01:08:35;19.51;74.69
66873;HTU21D;53781;51.090;5.884;2022-07-22T01:08:50;19.50;74.67
66873;HTU21D;53781;51.090;5.884;2022-07-22T01:09:06;19.51;74.69
66873;HTU21D;53781;51.090;5.884;2022-07-22T01:09:21;19.51;74.72
66873;HTU21D;53781;51.090;5.884;2022-07-22T01:09:36;19.51;74.67
66873;HTU21D;53781;51.090;5.884;2022-07-22T01:09:51;19.48;74.67
66873;HTU21D;53781;51.090;5.884;2022-07-22T01:10:06;19.50;74.74
66873;HTU21D;53781;51.090;5.884;2022-07-22T01:10:21;19.50;74.74
66873;HTU21D;53781;51.090;5.884;2022-07-22T01:10:36;19.52;74.74
66873;HTU21D;53781;51.090;5.884;2022-07-22T01:10:51;19.52;74.80
66873;HTU21D;53781;51.090;5.884;2022-07-22T01:11:18;19.51;74.81
66873;HTU21D;53781;51.090;5.884;2022-07-22T01:11:33;19.51;74.80
66873;HTU21D;53781;51.090;5.884;2022-07-22T01:11:48;19.51;74.90
66873;HTU21D;53781;51.090;5.884;2022-07-22T01:12:03;19.52;74.93
66873;HTU21D;53781;51.090;5.884;2022-07-22T01:12:19;19.54;74.94
66873;HTU21D;53781;51.090;5.884;2022-07-22T01:12:34;19.52;74.98
66873;HTU21D;53781;51.090;5.884;2022-07-22T01:12:48;19.54;74.94
66873;HTU21D;53781;51.090;5.884;2022-07-22T01:13:04;19.54;74.95
66873;HTU21D;53781;51.090;5.884;2022-07-22T01:13:19;19.53;74.97
66873;HTU21D;53781;51.090;5.884;2022-07-22T01:13:34;19.53;75.05
66873;HTU21D;53781;51.090;5.884;2022-07-22T01:13:49;19.53;74.99
66873;HTU21D;53781;51.090;5.884;2022-07-22T01:14:04;19.53;74.96
66873;HTU21D;53781;51.090;5.884;2022-07-22T01:14:19;19.54;74.96
66873;HTU21D;53781;51.090;5.884;2022-07-22T01:14:34;19.54;74.99
66873;HTU21D;53781;51.090;5.884;2022-07-22T01:14:48;19.53;74.96
66873;HTU21D;53781;51.090;5.884;2022-07-22T01:15:04;19.53;74.92
66873;HTU21D;53781;51.090;5.884;2022-07-22T01:15:19;19.55;74.84
66873;HTU21D;53781;51.090;5.884;2022-07-22T01:15:33;19.54;74.90
66873;HTU21D;53781;51.090;5.884;2022-07-22T01:15:48;19.54;74.83
66873;HTU21D;53781;51.090;5.884;2022-07-22T01:16:08;19.55;74.83
66873;HTU21D;53781;51.090;5.884;2022-07-22T01:16:23;19.55;74.77
66873;HTU21D;53781;51.090;5.884;2022-07-22T01:16:38;19.55;74.76
66873;HTU21D;53781;51.090;5.884;2022-07-22T01:16:53;19.55;74.76
66873;HTU21D;53781;51.090;5.884;2022-07-22T01:17:08;19.55;74.73
66873;HTU21D;53781;51.090;5.884;2022-07-22T01:17:23;19.55;74.75
66873;HTU21D;53781;51.090;5.884;2022-07-22T01:17:41;19.55;74.70
66873;HTU21D;53781;51.090;5.884;2022-07-22T01:17:56;19.56;74.69
66873;HTU21D;53781;51.090;5.884;2022-07-22T01:18:10;19.56;74.67
66873;HTU21D;53781;51.090;5.884;2022-07-22T01:18:26;19.55;74.67
66873;HTU21D;53781;51.090;5.884;2022-07-22T01:18:41;19.55;74.64
66873;HTU21D;53781;51.090;5.884;2022-07-22T01:18:56;19.53;74.56
66873;HTU21D;53781;51.090;5.884;2022-07-22T01:19:11;19.55;74.59
66873;HTU21D;53781;51.090;5.884;2022-07-22T01:19:26;19.55;74.54
66873;HTU21D;53781;51.090;5.884;2022-07-22T01:19:41;19.54;74.52
66873;HTU21D;53781;51.090;5.884;2022-07-22T01:20:07;19.55;74.57
66873;HTU21D;53781;51.090;5.884;2022-07-22T01:20:22;19.54;74.53
66873;HTU21D;53781;51.090;5.884;2022-07-22T01:20:37;19.54;74.51
66873;HTU21D;53781;51.090;5.884;2022-07-22T01:20:52;19.54;74.57
66873;HTU21D;53781;51.090;5.884;2022-07-22T01:21:08;19.54;74.51
66873;HTU21D;53781;51.090;5.884;2022-07-22T01:21:23;19.55;74.57
66873;HTU21D;53781;51.090;5.884;2022-07-22T01:21:38;19.54;74.59
66873;HTU21D;53781;51.090;5.884;2022-07-22T01:21:53;19.53;74.58
66873;HTU21D;53781;51.090;5.884;2022-07-22T01:22:08;19.53;74.57
66873;HTU21D;53781;51.090;5.884;2022-07-22T01:22:23;19.53;74.56
66873;HTU21D;53781;51.090;5.884;2022-07-22T01:22:37;19.53;74.60
66873;HTU21D;53781;51.090;5.884;2022-07-22T01:22:52;19.54;74.60
66873;HTU21D;53781;51.090;5.884;2022-07-22T01:23:07;19.55;74.61
66873;HTU21D;53781;51.090;5.884;2022-07-22T01:23:22;19.53;74.54
66873;HTU21D;53781;51.090;5.884;2022-07-22T01:23:37;19.53;74.60
66873;HTU21D;53781;51.090;5.884;2022-07-22T01:23:52;19.54;74.57
66873;HTU21D;53781;51.090;5.884;2022-07-22T01:24:07;19.55;74.60
66873;HTU21D;53781;51.090;5.884;2022-07-22T01:24:22;19.54;74.62
66873;HTU21D;53781;51.090;5.884;2022-07-22T01:24:37;19.54;74.59
66873;HTU21D;53781;51.090;5.884;2022-07-22T01:24:52;19.54;74.60
66873;HTU21D;53781;51.090;5.884;2022-07-22T01:25:07;19.54;74.60
66873;HTU21D;53781;51.090;5.884;2022-07-22T01:25:22;19.52;74.59
66873;HTU21D;53781;51.090;5.884;2022-07-22T01:25:37;19.53;74.53
66873;HTU21D;53781;51.090;5.884;2022-07-22T01:25:52;19.53;74.48
66873;HTU21D;53781;51.090;5.884;2022-07-22T01:26:06;19.53;74.44
66873;HTU21D;53781;51.090;5.884;2022-07-22T01:26:21;19.52;74.44
66873;HTU21D;53781;51.090;5.884;2022-07-22T01:26:37;19.48;74.44
66873;HTU21D;53781;51.090;5.884;2022-07-22T01:26:52;19.52;74.44
66873;HTU21D;53781;51.090;5.884;2022-07-22T01:27:07;19.48;74.44
66873;HTU21D;53781;51.090;5.884;2022-07-22T01:27:21;19.47;74.51
66873;HTU21D;53781;51.090;5.884;2022-07-22T01:27:37;19.50;74.51
66873;HTU21D;53781;51.090;5.884;2022-07-22T01:27:51;19.48;74.51
66873;HTU21D;53781;51.090;5.884;2022-07-22T01:28:06;19.50;74.55
66873;HTU21D;53781;51.090;5.884;2022-07-22T01:28:21;19.46;74.58
66873;HTU21D;53781;51.090;5.884;2022-07-22T01:28:36;19.48;74.52
66873;HTU21D;53781;51.090;5.884;2022-07-22T01:28:51;19.48;74.57
66873;HTU21D;53781;51.090;5.884;2022-07-22T01:29:07;19.48;74.58
66873;HTU21D;53781;51.090;5.884;2022-07-22T01:29:22;19.48;74.54
66873;HTU21D;53781;51.090;5.884;2022-07-22T01:29:36;19.47;74.60
66873;HTU21D;53781;51.090;5.884;2022-07-22T01:29:51;19.48;74.65
66873;HTU21D;53781;51.090;5.884;2022-07-22T01:30:06;19.48;74.67
66873;HTU21D;53781;51.090;5.884;2022-07-22T01:30:22;19.46;74.67
66873;HTU21D;53781;51.090;5.884;2022-07-22T01:30:37;19.48;74.70
66873;HTU21D;53781;51.090;5.884;2022-07-22T01:30:52;19.47;74.71
66873;HTU21D;53781;51.090;5.884;2022-07-22T01:31:07;19.48;74.71
66873;HTU21D;53781;51.090;5.884;2022-07-22T01:31:22;19.48;74.62
66873;HTU21D;53781;51.090;5.884;2022-07-22T01:31:36;19.47;74.66
66873;HTU21D;53781;51.090;5.884;2022-07-22T01:31:51;19.50;74.64
66873;HTU21D;53781;51.090;5.884;2022-07-22T01:32:06;19.50;74.70
66873;HTU21D;53781;51.090;5.884;2022-07-22T01:32:21;19.50;74.62
66873;HTU21D;53781;51.090;5.884;2022-07-22T01:32:35;19.47;74.73
66873;HTU21D;53781;51.090;5.884;2022-07-22T01:32:50;19.48;74.69
66873;HTU21D;53781;51.090;5.884;2022-07-22T01:33:05;19.48;74.73
66873;HTU21D;53781;51.090;5.884;2022-07-22T01:33:21;19.48;74.74
66873;HTU21D;53781;51.090;5.884;2022-07-22T01:33:37;19.51;74.75
66873;HTU21D;53781;51.090;5.884;2022-07-22T01:33:52;19.48;74.73
66873;HTU21D;53781;51.090;5.884;2022-07-22T01:34:06;19.50;74.76
66873;HTU21D;53781;51.090;5.884;2022-07-22T01:34:24;19.50;74.71